KTOI/TOI METAR and TAF weather

Enter ICAO airport designator
Station Type Date Time Source
KTOI METAR 2020/08/14 16:53 UTC NOAA

KTOI 141653Z AUTO VRB03KT 10SM FEW034 31/22 A2998 RMK AO2 SLP147 T03110222


Station Type Date Time Source
KTOI Decoded METAR 2020/08/14 16:53 UTC NOAA

TROY MUNICIPAL AIRPORT, AL, United States (KTOI) 31-52N 086-01W 118M
Aug 14, 2020 - 12:53 PM EDT / 2020.08.14 1653 UTC
Wind: Variable at 3 MPH (3 KT):0
Visibility: 10 mile(s):0
Sky conditions: mostly clear
Temperature: 88.0 F (31.1 C)
Heat index: 94.6 F (34.8 C):1
Dew Point: 72.0 F (22.2 C)
Relative Humidity: 59%
Pressure (altimeter): 29.98 in. Hg (1015 hPa)
ob: KTOI 141653Z AUTO VRB03KT 10SM FEW034 31/22 A2998 RMK AO2 SLP147 T03110222
cycle: 17

Station Type Date Time Source
KTOI TAF 2020/08/14 12:45 UTC NOAA

TAF KTOI 141140Z 1412/1512 00000KT P6SM SCT100
FM141500 VRB04KT P6SM VCSH SCT090
FM141800 22006KT P6SM SHRA VCTS SCT025CB BKN070
FM150000 20005KT P6SM BKN080 PROB30 1500/1506 4SM TSRA BR OVC025CB
FM150900 VRB03KT P6SM SCT015 BKN025

Example: see airport list